sensor_id;sensor_type;location;lat;lon;timestamp;noise_LAeq;noise_LA_min;noise_LA_max;noise_LA01;noise_LA95
80580;Laerm;69939;52.402;6.608;2023-12-07T00:00:49;41.45;34.43;58.31;;
80580;Laerm;69939;52.402;6.608;2023-12-07T00:03:26;38.46;34.26;58.74;;
80580;Laerm;69939;52.402;6.608;2023-12-07T00:05:56;37.72;34.42;58.84;;
80580;Laerm;69939;52.402;6.608;2023-12-07T00:08:25;52.88;35.09;68.49;;
80580;Laerm;69939;52.402;6.608;2023-12-07T00:11:00;57.68;35.04;72.72;;
80580;Laerm;69939;52.402;6.608;2023-12-07T00:13:31;37.63;34.17;57.69;;
80580;Laerm;69939;52.402;6.608;2023-12-07T00:16:01;39.25;34.54;59.74;;
80580;Laerm;69939;52.402;6.608;2023-12-07T00:18:31;54.56;34.02;72.84;;
80580;Laerm;69939;52.402;6.608;2023-12-07T00:21:08;54.32;35.14;70.11;;
80580;Laerm;69939;52.402;6.608;2023-12-07T00:23:37;58.68;35.55;72.67;;
80580;Laerm;69939;52.402;6.608;2023-12-07T00:26:08;38.99;34.32;59.43;;
80580;Laerm;69939;52.402;6.608;2023-12-07T00:28:38;37.40;33.83;57.66;;
80580;Laerm;69939;52.402;6.608;2023-12-07T00:31:09;37.47;34.43;59.12;;
80580;Laerm;69939;52.402;6.608;2023-12-07T00:33:39;37.18;33.69;59.63;;
80580;Laerm;69939;52.402;6.608;2023-12-07T00:36:11;37.14;34.27;59.21;;
80580;Laerm;69939;52.402;6.608;2023-12-07T00:38:43;58.14;33.67;72.30;;
80580;Laerm;69939;52.402;6.608;2023-12-07T00:41:12;58.84;35.51;74.11;;
80580;Laerm;69939;52.402;6.608;2023-12-07T00:43:42;53.58;34.14;69.28;;
80580;Laerm;69939;52.402;6.608;2023-12-07T00:46:11;37.68;33.67;58.51;;
80580;Laerm;69939;52.402;6.608;2023-12-07T00:48:40;58.14;34.14;75.61;;
80580;Laerm;69939;52.402;6.608;2023-12-07T00:51:14;39.29;33.71;59.37;;
80580;Laerm;69939;52.402;6.608;2023-12-07T00:53:45;58.25;34.64;73.41;;
80580;Laerm;69939;52.402;6.608;2023-12-07T00:56:15;41.68;34.28;58.54;;
80580;Laerm;69939;52.402;6.608;2023-12-07T00:58:50;52.22;34.12;68.75;;
80580;Laerm;69939;52.402;6.608;2023-12-07T01:01:20;38.62;33.62;58.14;;
80580;Laerm;69939;52.402;6.608;2023-12-07T01:03:50;58.92;36.09;73.77;;
80580;Laerm;69939;52.402;6.608;2023-12-07T01:06:20;51.95;35.06;68.48;;
80580;Laerm;69939;52.402;6.608;2023-12-07T01:08:49;58.02;35.90;75.68;;
80580;Laerm;69939;52.402;6.608;2023-12-07T01:11:19;56.51;33.81;73.89;;
80580;Laerm;69939;52.402;6.608;2023-12-07T01:13:55;37.34;33.78;58.83;;
80580;Laerm;69939;52.402;6.608;2023-12-07T01:16:24;37.35;33.03;59.29;;
80580;Laerm;69939;52.402;6.608;2023-12-07T01:18:56;37.03;33.95;59.19;;
80580;Laerm;69939;52.402;6.608;2023-12-07T01:21:26;36.93;33.69;59.02;;
80580;Laerm;69939;52.402;6.608;2023-12-07T01:23:56;38.30;34.01;57.84;;
80580;Laerm;69939;52.402;6.608;2023-12-07T01:26:26;37.33;33.21;58.54;;
80580;Laerm;69939;52.402;6.608;2023-12-07T01:29:00;36.74;33.20;57.50;;
80580;Laerm;69939;52.402;6.608;2023-12-07T01:31:30;38.82;33.98;58.93;;
80580;Laerm;69939;52.402;6.608;2023-12-07T01:34:00;52.65;34.41;68.67;;
80580;Laerm;69939;52.402;6.608;2023-12-07T01:36:29;36.60;34.39;39.47;;
80580;Laerm;69939;52.402;6.608;2023-12-07T01:38:59;37.92;34.20;58.63;;
80580;Laerm;69939;52.402;6.608;2023-12-07T01:41:29;38.23;34.20;58.99;;
80580;Laerm;69939;52.402;6.608;2023-12-07T01:44:03;59.36;34.80;74.47;;
80580;Laerm;69939;52.402;6.608;2023-12-07T01:46:38;52.17;34.04;69.60;;
80580;Laerm;69939;52.402;6.608;2023-12-07T01:49:09;37.16;33.46;59.24;;
80580;Laerm;69939;52.402;6.608;2023-12-07T01:51:39;59.05;33.70;74.76;;
80580;Laerm;69939;52.402;6.608;2023-12-07T01:54:09;54.88;34.18;72.78;;
80580;Laerm;69939;52.402;6.608;2023-12-07T01:56:39;37.16;33.45;60.06;;
80580;Laerm;69939;52.402;6.608;2023-12-07T01:59:11;37.68;33.58;59.95;;
80580;Laerm;69939;52.402;6.608;2023-12-07T02:01:44;39.88;33.75;57.79;;
80580;Laerm;69939;52.402;6.608;2023-12-07T02:04:14;54.45;34.38;71.63;;
80580;Laerm;69939;52.402;6.608;2023-12-07T02:06:45;58.92;36.15;76.89;;
80580;Laerm;69939;52.402;6.608;2023-12-07T02:09:14;58.99;37.49;76.01;;
80580;Laerm;69939;52.402;6.608;2023-12-07T02:11:45;39.67;35.63;58.21;;
80580;Laerm;69939;52.402;6.608;2023-12-07T02:14:14;39.53;35.50;58.75;;
80580;Laerm;69939;52.402;6.608;2023-12-07T02:16:53;38.90;34.43;60.17;;
80580;Laerm;69939;52.402;6.608;2023-12-07T02:19:52;56.63;36.17;71.86;;
80580;Laerm;69939;52.402;6.608;2023-12-07T02:22:29;59.97;36.08;77.18;;
80580;Laerm;69939;52.402;6.608;2023-12-07T02:25:08;39.10;35.48;59.90;;
80580;Laerm;69939;52.402;6.608;2023-12-07T02:27:41;55.61;36.41;71.64;;
80580;Laerm;69939;52.402;6.608;2023-12-07T02:30:14;38.21;34.83;58.11;;
80580;Laerm;69939;52.402;6.608;2023-12-07T02:32:46;38.17;34.19;59.93;;
80580;Laerm;69939;52.402;6.608;2023-12-07T02:35:15;56.92;36.13;71.94;;
80580;Laerm;69939;52.402;6.608;2023-12-07T02:37:49;62.52;39.05;77.44;;
80580;Laerm;69939;52.402;6.608;2023-12-07T02:40:27;52.39;35.49;69.11;;
80580;Laerm;69939;52.402;6.608;2023-12-07T02:42:59;38.08;34.72;57.75;;
80580;Laerm;69939;52.402;6.608;2023-12-07T02:45:30;39.62;35.07;59.71;;
80580;Laerm;69939;52.402;6.608;2023-12-07T02:48:04;58.48;36.51;74.21;;
80580;Laerm;69939;52.402;6.608;2023-12-07T02:50:34;60.12;36.61;77.59;;
80580;Laerm;69939;52.402;6.608;2023-12-07T02:53:03;59.64;34.07;75.47;;
80580;Laerm;69939;52.402;6.608;2023-12-07T02:55:36;37.85;33.17;59.26;;
80580;Laerm;69939;52.402;6.608;2023-12-07T02:58:11;37.43;33.33;58.47;;
80580;Laerm;69939;52.402;6.608;2023-12-07T03:00:41;36.69;33.20;58.22;;
80580;Laerm;69939;52.402;6.608;2023-12-07T03:03:10;37.55;33.78;59.71;;
80580;Laerm;69939;52.402;6.608;2023-12-07T03:05:40;50.95;33.83;67.50;;
80580;Laerm;69939;52.402;6.608;2023-12-07T03:08:11;37.68;34.53;57.87;;
80580;Laerm;69939;52.402;6.608;2023-12-07T03:10:40;57.13;35.08;75.66;;
80580;Laerm;69939;52.402;6.608;2023-12-07T03:13:15;38.41;34.08;59.14;;
80580;Laerm;69939;52.402;6.608;2023-12-07T03:15:51;37.73;34.63;58.03;;
80580;Laerm;69939;52.402;6.608;2023-12-07T03:18:21;37.70;34.46;60.02;;
80580;Laerm;69939;52.402;6.608;2023-12-07T03:20:50;36.90;34.20;43.98;;
80580;Laerm;69939;52.402;6.608;2023-12-07T03:23:20;60.88;35.64;76.85;;
80580;Laerm;69939;52.402;6.608;2023-12-07T03:25:49;41.47;34.33;59.17;;
80580;Laerm;69939;52.402;6.608;2023-12-07T03:28:22;49.65;34.19;66.22;;
80580;Laerm;69939;52.402;6.608;2023-12-07T03:30:53;61.04;34.45;79.92;;
80580;Laerm;69939;52.402;6.608;2023-12-07T03:33:22;60.56;37.36;76.82;;
80580;Laerm;69939;52.402;6.608;2023-12-07T03:35:52;51.66;35.55;68.43;;
80580;Laerm;69939;52.402;6.608;2023-12-07T03:38:21;62.65;42.20;76.20;;
80580;Laerm;69939;52.402;6.608;2023-12-07T03:40:50;57.82;35.83;74.77;;
80580;Laerm;69939;52.402;6.608;2023-12-07T03:43:23;60.23;34.88;73.04;;
80580;Laerm;69939;52.402;6.608;2023-12-07T03:45:52;61.16;35.86;77.69;;
80580;Laerm;69939;52.402;6.608;2023-12-07T03:48:22;56.99;35.74;73.26;;
80580;Laerm;69939;52.402;6.608;2023-12-07T03:50:51;55.93;34.66;72.74;;
80580;Laerm;69939;52.402;6.608;2023-12-07T03:53:21;63.00;36.39;75.74;;
80580;Laerm;69939;52.402;6.608;2023-12-07T03:55:50;64.04;37.37;82.08;;
80580;Laerm;69939;52.402;6.608;2023-12-07T03:58:22;61.84;35.74;75.42;;
80580;Laerm;69939;52.402;6.608;2023-12-07T04:00:53;61.71;38.16;75.47;;
80580;Laerm;69939;52.402;6.608;2023-12-07T04:03:25;58.45;35.97;73.12;;
80580;Laerm;69939;52.402;6.608;2023-12-07T04:05:55;64.31;44.08;78.44;;
80580;Laerm;69939;52.402;6.608;2023-12-07T04:08:25;63.91;42.79;76.22;;
80580;Laerm;69939;52.402;6.608;2023-12-07T04:10:57;65.99;41.91;78.47;;
80580;Laerm;69939;52.402;6.608;2023-12-07T04:13:31;62.78;41.43;74.80;;
80580;Laerm;69939;52.402;6.608;2023-12-07T04:16:00;61.25;37.81;75.21;;
80580;Laerm;69939;52.402;6.608;2023-12-07T04:18:30;60.03;39.72;74.94;;
80580;Laerm;69939;52.402;6.608;2023-12-07T04:21:02;62.98;44.24;74.19;;
80580;Laerm;69939;52.402;6.608;2023-12-07T04:23:32;61.21;40.26;74.31;;
80580;Laerm;69939;52.402;6.608;2023-12-07T04:26:03;63.17;41.36;75.02;;
80580;Laerm;69939;52.402;6.608;2023-12-07T04:28:35;65.10;44.31;77.35;;
80580;Laerm;69939;52.402;6.608;2023-12-07T04:31:10;65.17;46.03;77.74;;
80580;Laerm;69939;52.402;6.608;2023-12-07T04:33:39;63.11;42.97;74.81;;
80580;Laerm;69939;52.402;6.608;2023-12-07T04:36:10;60.18;38.97;73.63;;
80580;Laerm;69939;52.402;6.608;2023-12-07T04:38:39;63.98;41.67;75.02;;
80580;Laerm;69939;52.402;6.608;2023-12-07T04:41:10;60.83;42.02;73.08;;
80580;Laerm;69939;52.402;6.608;2023-12-07T04:43:41;65.17;44.71;74.66;;
80580;Laerm;69939;52.402;6.608;2023-12-07T04:46:14;66.38;41.56;77.06;;
80580;Laerm;69939;52.402;6.608;2023-12-07T04:48:43;65.70;40.60;75.85;;
80580;Laerm;69939;52.402;6.608;2023-12-07T04:51:12;67.07;48.04;76.65;;
80580;Laerm;69939;52.402;6.608;2023-12-07T04:53:42;66.22;50.54;77.19;;
80580;Laerm;69939;52.402;6.608;2023-12-07T04:56:14;66.58;45.15;78.78;;
80580;Laerm;69939;52.402;6.608;2023-12-07T04:58:44;63.92;43.74;75.48;;
80580;Laerm;69939;52.402;6.608;2023-12-07T05:01:18;66.11;46.46;77.47;;
80580;Laerm;69939;52.402;6.608;2023-12-07T05:03:48;67.73;44.72;78.29;;
80580;Laerm;69939;52.402;6.608;2023-12-07T05:06:21;64.21;43.38;74.71;;
80580;Laerm;69939;52.402;6.608;2023-12-07T05:08:52;64.18;45.49;73.22;;
80580;Laerm;69939;52.402;6.608;2023-12-07T05:11:21;69.35;51.51;81.66;;
80580;Laerm;69939;52.402;6.608;2023-12-07T05:14:06;66.55;46.26;77.19;;
80580;Laerm;69939;52.402;6.608;2023-12-07T05:16:46;66.11;48.99;76.23;;
80580;Laerm;69939;52.402;6.608;2023-12-07T05:19:21;66.36;46.46;76.60;;
80580;Laerm;69939;52.402;6.608;2023-12-07T05:21:53;65.18;46.77;74.30;;
80580;Laerm;69939;52.402;6.608;2023-12-07T05:24:23;66.35;47.50;78.11;;
80580;Laerm;69939;52.402;6.608;2023-12-07T05:26:54;67.41;50.46;76.94;;
80580;Laerm;69939;52.402;6.608;2023-12-07T05:29:26;65.03;48.68;73.21;;
80580;Laerm;69939;52.402;6.608;2023-12-07T05:32:00;66.38;51.57;74.86;;
80580;Laerm;69939;52.402;6.608;2023-12-07T05:34:32;65.51;48.31;73.63;;
80580;Laerm;69939;52.402;6.608;2023-12-07T05:37:01;68.67;50.64;78.41;;
80580;Laerm;69939;52.402;6.608;2023-12-07T05:39:33;68.14;52.39;75.88;;
80580;Laerm;69939;52.402;6.608;2023-12-07T05:42:04;70.80;55.12;82.72;;
80580;Laerm;69939;52.402;6.608;2023-12-07T05:44:36;68.56;55.39;76.69;;
80580;Laerm;69939;52.402;6.608;2023-12-07T05:47:10;66.95;50.49;76.28;;
80580;Laerm;69939;52.402;6.608;2023-12-07T05:49:40;69.88;57.29;76.46;;
80580;Laerm;69939;52.402;6.608;2023-12-07T05:52:11;66.42;49.16;74.88;;
80580;Laerm;69939;52.402;6.608;2023-12-07T05:54:45;69.21;48.92;77.20;;
80580;Laerm;69939;52.402;6.608;2023-12-07T05:57:16;69.46;49.40;77.90;;
80580;Laerm;69939;52.402;6.608;2023-12-07T05:59:58;68.91;52.71;77.19;;
80580;Laerm;69939;52.402;6.608;2023-12-07T06:02:32;68.00;51.71;76.64;;
80580;Laerm;69939;52.402;6.608;2023-12-07T06:05:05;66.86;49.76;75.84;;
80580;Laerm;69939;52.402;6.608;2023-12-07T06:07:35;68.41;52.18;75.38;;
80580;Laerm;69939;52.402;6.608;2023-12-07T06:10:09;67.65;50.28;76.83;;
80580;Laerm;69939;52.402;6.608;2023-12-07T06:12:38;67.11;50.51;75.90;;
80580;Laerm;69939;52.402;6.608;2023-12-07T06:15:14;68.80;53.30;74.82;;
80580;Laerm;69939;52.402;6.608;2023-12-07T06:17:46;68.36;56.16;77.87;;
80580;Laerm;69939;52.402;6.608;2023-12-07T06:20:19;69.34;50.58;78.92;;
80580;Laerm;69939;52.402;6.608;2023-12-07T06:22:54;69.14;50.15;75.96;;
80580;Laerm;69939;52.402;6.608;2023-12-07T06:25:27;66.59;46.56;75.46;;
80580;Laerm;69939;52.402;6.608;2023-12-07T06:28:04;68.77;50.24;76.86;;
80580;Laerm;69939;52.402;6.608;2023-12-07T06:30:33;69.25;53.25;75.77;;
80580;Laerm;69939;52.402;6.608;2023-12-07T06:33:03;69.26;52.85;74.92;;
80580;Laerm;69939;52.402;6.608;2023-12-07T06:35:33;68.88;51.82;75.17;;
80580;Laerm;69939;52.402;6.608;2023-12-07T06:38:03;69.97;53.40;76.55;;
80580;Laerm;69939;52.402;6.608;2023-12-07T06:40:33;70.72;59.44;81.22;;
80580;Laerm;69939;52.402;6.608;2023-12-07T06:43:05;68.66;50.60;76.89;;
80580;Laerm;69939;52.402;6.608;2023-12-07T06:45:36;67.94;52.79;74.44;;
80580;Laerm;69939;52.402;6.608;2023-12-07T06:48:06;69.61;54.67;76.79;;
80580;Laerm;69939;52.402;6.608;2023-12-07T06:50:35;67.99;50.88;75.35;;
80580;Laerm;69939;52.402;6.608;2023-12-07T06:53:07;69.70;54.61;76.43;;
80580;Laerm;69939;52.402;6.608;2023-12-07T06:55:39;69.70;50.73;77.50;;
80580;Laerm;69939;52.402;6.608;2023-12-07T06:58:12;68.29;53.24;75.39;;
80580;Laerm;69939;52.402;6.608;2023-12-07T07:00:41;68.84;46.94;80.09;;
80580;Laerm;69939;52.402;6.608;2023-12-07T07:03:11;68.44;49.71;75.20;;
80580;Laerm;69939;52.402;6.608;2023-12-07T07:05:40;68.41;51.50;77.38;;
80580;Laerm;69939;52.402;6.608;2023-12-07T07:08:10;68.48;51.74;77.80;;
80580;Laerm;69939;52.402;6.608;2023-12-07T07:10:39;69.68;53.45;78.39;;
80580;Laerm;69939;52.402;6.608;2023-12-07T07:13:11;67.88;49.13;74.94;;
80580;Laerm;69939;52.402;6.608;2023-12-07T07:15:42;69.14;47.75;78.89;;
80580;Laerm;69939;52.402;6.608;2023-12-07T07:18:12;67.88;49.35;75.44;;
80580;Laerm;69939;52.402;6.608;2023-12-07T07:20:42;67.96;50.76;75.16;;
80580;Laerm;69939;52.402;6.608;2023-12-07T07:23:12;68.14;48.76;76.28;;
80580;Laerm;69939;52.402;6.608;2023-12-07T07:25:41;69.47;51.76;78.47;;
80580;Laerm;69939;52.402;6.608;2023-12-07T07:28:13;70.74;52.62;84.13;;
80580;Laerm;69939;52.402;6.608;2023-12-07T07:30:43;68.93;50.00;76.32;;
80580;Laerm;69939;52.402;6.608;2023-12-07T07:33:12;68.13;54.29;74.28;;
80580;Laerm;69939;52.402;6.608;2023-12-07T07:35:41;68.30;49.63;76.03;;
80580;Laerm;69939;52.402;6.608;2023-12-07T07:38:11;67.95;51.43;76.98;;
80580;Laerm;69939;52.402;6.608;2023-12-07T07:40:40;67.75;51.07;74.40;;
80580;Laerm;69939;52.402;6.608;2023-12-07T07:43:15;68.95;48.44;76.96;;
80580;Laerm;69939;52.402;6.608;2023-12-07T07:45:45;69.60;55.20;77.77;;
80580;Laerm;69939;52.402;6.608;2023-12-07T07:48:14;67.94;49.55;74.71;;
80580;Laerm;69939;52.402;6.608;2023-12-07T07:50:45;67.68;49.88;77.21;;
80580;Laerm;69939;52.402;6.608;2023-12-07T07:53:15;69.75;51.07;79.87;;
80580;Laerm;69939;52.402;6.608;2023-12-07T07:55:45;67.52;50.82;74.68;;
80580;Laerm;69939;52.402;6.608;2023-12-07T07:58:18;68.23;50.09;76.05;;
80580;Laerm;69939;52.402;6.608;2023-12-07T08:00:47;67.45;50.23;75.18;;
80580;Laerm;69939;52.402;6.608;2023-12-07T08:03:18;68.39;49.97;76.32;;
80580;Laerm;69939;52.402;6.608;2023-12-07T08:05:47;67.33;47.43;77.15;;
80580;Laerm;69939;52.402;6.608;2023-12-07T08:08:17;67.91;48.33;76.68;;
80580;Laerm;69939;52.402;6.608;2023-12-07T08:10:46;69.98;53.13;78.44;;
80580;Laerm;69939;52.402;6.608;2023-12-07T08:13:18;68.05;50.02;74.66;;
80580;Laerm;69939;52.402;6.608;2023-12-07T08:15:48;65.27;46.64;75.05;;
80580;Laerm;69939;52.402;6.608;2023-12-07T08:18:17;69.29;50.31;78.62;;
80580;Laerm;69939;52.402;6.608;2023-12-07T08:20:47;67.43;46.32;76.14;;
80580;Laerm;69939;52.402;6.608;2023-12-07T08:23:16;67.19;46.13;76.43;;
80580;Laerm;69939;52.402;6.608;2023-12-07T08:25:46;65.93;45.94;73.70;;
80580;Laerm;69939;52.402;6.608;2023-12-07T08:28:17;67.33;47.00;75.83;;
80580;Laerm;69939;52.402;6.608;2023-12-07T08:30:53;66.25;46.51;75.81;;
80580;Laerm;69939;52.402;6.608;2023-12-07T08:33:22;65.13;43.36;73.57;;
80580;Laerm;69939;52.402;6.608;2023-12-07T08:35:51;67.40;49.06;77.64;;
80580;Laerm;69939;52.402;6.608;2023-12-07T08:38:22;67.89;44.76;76.92;;
80580;Laerm;69939;52.402;6.608;2023-12-07T08:40:52;66.45;45.71;74.00;;
80580;Laerm;69939;52.402;6.608;2023-12-07T08:43:21;67.96;48.63;78.03;;
80580;Laerm;69939;52.402;6.608;2023-12-07T08:45:54;67.34;50.67;77.49;;
80580;Laerm;69939;52.402;6.608;2023-12-07T08:48:23;65.32;46.02;75.74;;
80580;Laerm;69939;52.402;6.608;2023-12-07T08:50:53;67.82;43.58;78.80;;
80580;Laerm;69939;52.402;6.608;2023-12-07T08:53:30;67.45;47.04;75.36;;
80580;Laerm;69939;52.402;6.608;2023-12-07T08:55:59;69.09;51.53;77.61;;
80580;Laerm;69939;52.402;6.608;2023-12-07T08:58:28;65.28;45.50;74.49;;
80580;Laerm;69939;52.402;6.608;2023-12-07T09:00:58;67.38;44.82;75.01;;
80580;Laerm;69939;52.402;6.608;2023-12-07T09:03:27;67.53;44.26;75.25;;
80580;Laerm;69939;52.402;6.608;2023-12-07T09:05:57;68.28;44.08;79.54;;
80580;Laerm;69939;52.402;6.608;2023-12-07T09:08:29;65.22;43.20;74.37;;
80580;Laerm;69939;52.402;6.608;2023-12-07T09:11:05;67.87;52.28;76.15;;
80580;Laerm;69939;52.402;6.608;2023-12-07T09:13:35;65.40;43.00;74.42;;
80580;Laerm;69939;52.402;6.608;2023-12-07T09:16:05;67.14;42.05;76.27;;
80580;Laerm;69939;52.402;6.608;2023-12-07T09:18:35;68.60;50.70;79.23;;
80580;Laerm;69939;52.402;6.608;2023-12-07T09:21:05;65.91;49.70;75.12;;
80580;Laerm;69939;52.402;6.608;2023-12-07T09:23:40;67.34;50.48;77.85;;
80580;Laerm;69939;52.402;6.608;2023-12-07T09:26:10;66.70;47.62;78.06;;
80580;Laerm;69939;52.402;6.608;2023-12-07T09:28:40;68.05;48.17;77.22;;
80580;Laerm;69939;52.402;6.608;2023-12-07T09:31:09;66.78;48.24;76.02;;
80580;Laerm;69939;52.402;6.608;2023-12-07T09:33:38;67.28;48.39;77.04;;
80580;Laerm;69939;52.402;6.608;2023-12-07T09:36:09;67.78;49.18;77.35;;
80580;Laerm;69939;52.402;6.608;2023-12-07T09:38:42;68.15;48.52;79.46;;
80580;Laerm;69939;52.402;6.608;2023-12-07T09:41:11;66.74;47.25;75.28;;
80580;Laerm;69939;52.402;6.608;2023-12-07T09:43:41;65.95;44.85;74.66;;
80580;Laerm;69939;52.402;6.608;2023-12-07T09:46:12;67.08;49.87;78.86;;
80580;Laerm;69939;52.402;6.608;2023-12-07T09:48:43;68.25;53.24;78.70;;
80580;Laerm;69939;52.402;6.608;2023-12-07T09:51:15;67.77;52.18;76.40;;
80580;Laerm;69939;52.402;6.608;2023-12-07T09:53:50;67.71;50.07;77.49;;
80580;Laerm;69939;52.402;6.608;2023-12-07T09:56:21;65.32;49.59;73.87;;
80580;Laerm;69939;52.402;6.608;2023-12-07T09:58:51;65.90;43.42;76.01;;
80580;Laerm;69939;52.402;6.608;2023-12-07T10:01:20;68.48;46.11;79.46;;
80580;Laerm;69939;52.402;6.608;2023-12-07T10:03:49;67.85;48.67;79.02;;
80580;Laerm;69939;52.402;6.608;2023-12-07T10:06:19;64.94;44.37;77.08;;
80580;Laerm;69939;52.402;6.608;2023-12-07T10:09:03;66.26;48.00;76.07;;
80580;Laerm;69939;52.402;6.608;2023-12-07T10:11:41;66.80;47.14;78.30;;
80580;Laerm;69939;52.402;6.608;2023-12-07T10:14:10;68.79;49.48;79.93;;
80580;Laerm;69939;52.402;6.608;2023-12-07T10:16:53;67.31;47.80;74.60;;
80580;Laerm;69939;52.402;6.608;2023-12-07T10:19:24;68.08;48.42;77.54;;
80580;Laerm;69939;52.402;6.608;2023-12-07T10:21:54;65.91;45.64;74.48;;
80580;Laerm;69939;52.402;6.608;2023-12-07T10:24:25;67.54;45.10;77.47;;
80580;Laerm;69939;52.402;6.608;2023-12-07T10:26:59;67.80;47.33;78.09;;
80580;Laerm;69939;52.402;6.608;2023-12-07T10:29:29;67.77;47.12;78.72;;
80580;Laerm;69939;52.402;6.608;2023-12-07T10:32:01;66.97;47.35;78.03;;
80580;Laerm;69939;52.402;6.608;2023-12-07T10:34:31;65.58;48.00;75.09;;
80580;Laerm;69939;52.402;6.608;2023-12-07T10:37:02;67.58;49.93;75.69;;
80580;Laerm;69939;52.402;6.608;2023-12-07T10:39:32;69.75;51.53;78.20;;
80580;Laerm;69939;52.402;6.608;2023-12-07T10:42:10;68.83;54.84;79.40;;
80580;Laerm;69939;52.402;6.608;2023-12-07T10:44:42;68.42;49.42;79.58;;
80580;Laerm;69939;52.402;6.608;2023-12-07T10:47:14;67.27;45.90;76.68;;
80580;Laerm;69939;52.402;6.608;2023-12-07T10:49:51;66.94;50.28;74.26;;
80580;Laerm;69939;52.402;6.608;2023-12-07T10:52:32;67.10;49.83;77.03;;
80580;Laerm;69939;52.402;6.608;2023-12-07T10:55:09;69.61;47.78;80.79;;
80580;Laerm;69939;52.402;6.608;2023-12-07T10:57:44;67.85;50.56;75.90;;
80580;Laerm;69939;52.402;6.608;2023-12-07T11:00:14;65.73;49.03;74.26;;
80580;Laerm;69939;52.402;6.608;2023-12-07T11:02:46;68.40;48.29;79.59;;
80580;Laerm;69939;52.402;6.608;2023-12-07T11:05:15;67.50;46.66;78.36;;
80580;Laerm;69939;52.402;6.608;2023-12-07T11:07:55;67.42;48.75;75.92;;
80580;Laerm;69939;52.402;6.608;2023-12-07T11:10:34;66.06;48.62;76.69;;
80580;Laerm;69939;52.402;6.608;2023-12-07T11:13:14;66.67;49.61;75.92;;
80580;Laerm;69939;52.402;6.608;2023-12-07T11:15:46;68.33;47.82;76.14;;
80580;Laerm;69939;52.402;6.608;2023-12-07T11:18:16;69.45;52.22;76.65;;
80580;Laerm;69939;52.402;6.608;2023-12-07T11:20:46;68.05;49.47;77.07;;
80580;Laerm;69939;52.402;6.608;2023-12-07T11:23:20;67.37;49.15;75.51;;
80580;Laerm;69939;52.402;6.608;2023-12-07T11:25:52;68.75;51.52;78.28;;
80580;Laerm;69939;52.402;6.608;2023-12-07T11:28:35;65.63;45.37;77.89;;
80580;Laerm;69939;52.402;6.608;2023-12-07T11:31:10;68.66;52.67;78.85;;
80580;Laerm;69939;52.402;6.608;2023-12-07T11:33:41;67.50;47.69;76.18;;
80580;Laerm;69939;52.402;6.608;2023-12-07T11:36:12;67.25;47.60;74.80;;
80580;Laerm;69939;52.402;6.608;2023-12-07T11:39:16;66.96;44.85;78.10;;
80580;Laerm;69939;52.402;6.608;2023-12-07T11:41:53;66.28;48.64;74.43;;
80580;Laerm;69939;52.402;6.608;2023-12-07T11:44:33;67.22;47.56;76.05;;
80580;Laerm;69939;52.402;6.608;2023-12-07T11:47:05;64.85;46.03;74.39;;
80580;Laerm;69939;52.402;6.608;2023-12-07T11:49:35;68.45;50.09;76.73;;
80580;Laerm;69939;52.402;6.608;2023-12-07T11:52:15;66.57;46.70;82.77;;
80580;Laerm;69939;52.402;6.608;2023-12-07T11:54:46;68.57;49.76;76.47;;
80580;Laerm;69939;52.402;6.608;2023-12-07T11:57:17;68.39;54.28;76.55;;
80580;Laerm;69939;52.402;6.608;2023-12-07T11:59:47;69.00;49.62;77.16;;
80580;Laerm;69939;52.402;6.608;2023-12-07T12:02:20;67.66;46.79;76.86;;
80580;Laerm;69939;52.402;6.608;2023-12-07T12:04:49;69.67;50.98;80.95;;
80580;Laerm;69939;52.402;6.608;2023-12-07T12:07:20;75.05;54.33;93.65;;
80580;Laerm;69939;52.402;6.608;2023-12-07T12:09:51;67.43;50.75;74.64;;
80580;Laerm;69939;52.402;6.608;2023-12-07T12:12:20;68.43;50.29;83.86;;
80580;Laerm;69939;52.402;6.608;2023-12-07T12:14:50;66.89;47.81;78.78;;
80580;Laerm;69939;52.402;6.608;2023-12-07T12:17:23;67.84;50.34;76.62;;
80580;Laerm;69939;52.402;6.608;2023-12-07T12:19:53;67.46;49.17;76.29;;
80580;Laerm;69939;52.402;6.608;2023-12-07T12:22:22;68.73;46.35;76.37;;
80580;Laerm;69939;52.402;6.608;2023-12-07T12:24:58;68.98;52.79;78.54;;
80580;Laerm;69939;52.402;6.608;2023-12-07T12:27:28;67.47;47.18;75.12;;
80580;Laerm;69939;52.402;6.608;2023-12-07T12:30:00;67.12;47.48;76.82;;
80580;Laerm;69939;52.402;6.608;2023-12-07T12:32:42;68.04;45.71;75.62;;
80580;Laerm;69939;52.402;6.608;2023-12-07T12:35:12;68.90;48.78;80.53;;
80580;Laerm;69939;52.402;6.608;2023-12-07T12:37:43;67.92;52.98;76.08;;
80580;Laerm;69939;52.402;6.608;2023-12-07T12:40:17;68.05;50.06;77.05;;
80580;Laerm;69939;52.402;6.608;2023-12-07T12:42:50;67.81;50.42;79.16;;
80580;Laerm;69939;52.402;6.608;2023-12-07T12:45:19;67.24;50.37;75.53;;
80580;Laerm;69939;52.402;6.608;2023-12-07T12:47:49;66.33;48.91;74.79;;
80580;Laerm;69939;52.402;6.608;2023-12-07T12:50:36;67.57;52.12;75.36;;
80580;Laerm;69939;52.402;6.608;2023-12-07T12:53:07;67.45;48.18;85.13;;
80580;Laerm;69939;52.402;6.608;2023-12-07T12:55:41;69.02;51.37;78.97;;
80580;Laerm;69939;52.402;6.608;2023-12-07T12:58:16;66.51;46.57;72.97;;
80580;Laerm;69939;52.402;6.608;2023-12-07T13:00:51;65.52;45.24;74.03;;
80580;Laerm;69939;52.402;6.608;2023-12-07T13:03:21;67.13;48.57;75.87;;
80580;Laerm;69939;52.402;6.608;2023-12-07T13:05:50;68.36;50.93;76.66;;
80580;Laerm;69939;52.402;6.608;2023-12-07T13:08:25;68.26;51.38;76.06;;
80580;Laerm;69939;52.402;6.608;2023-12-07T13:10:55;66.38;45.99;75.35;;
80580;Laerm;69939;52.402;6.608;2023-12-07T13:13:24;67.51;51.53;76.46;;
80580;Laerm;69939;52.402;6.608;2023-12-07T13:15:54;66.72;50.27;75.83;;
80580;Laerm;69939;52.402;6.608;2023-12-07T13:18:23;66.22;50.28;75.41;;
80580;Laerm;69939;52.402;6.608;2023-12-07T13:20:53;66.28;46.29;75.92;;
80580;Laerm;69939;52.402;6.608;2023-12-07T13:23:25;66.59;47.82;75.62;;
80580;Laerm;69939;52.402;6.608;2023-12-07T13:25:54;68.48;50.78;77.40;;
80580;Laerm;69939;52.402;6.608;2023-12-07T13:28:23;65.77;48.16;75.88;;
80580;Laerm;69939;52.402;6.608;2023-12-07T13:30:53;65.84;52.08;75.07;;
80580;Laerm;69939;52.402;6.608;2023-12-07T13:33:22;68.52;51.07;76.20;;
80580;Laerm;69939;52.402;6.608;2023-12-07T13:35:52;67.04;49.01;74.13;;
80580;Laerm;69939;52.402;6.608;2023-12-07T13:38:21;68.00;45.95;78.09;;
80580;Laerm;69939;52.402;6.608;2023-12-07T13:40:54;65.92;47.40;74.83;;
80580;Laerm;69939;52.402;6.608;2023-12-07T13:43:23;67.47;52.84;82.35;;
80580;Laerm;69939;52.402;6.608;2023-12-07T13:45:53;67.71;47.99;74.44;;
80580;Laerm;69939;52.402;6.608;2023-12-07T13:48:22;68.84;51.02;78.21;;
80580;Laerm;69939;52.402;6.608;2023-12-07T13:50:52;65.93;46.42;77.64;;
80580;Laerm;69939;52.402;6.608;2023-12-07T13:53:21;65.99;45.11;75.43;;
80580;Laerm;69939;52.402;6.608;2023-12-07T13:55:54;66.58;44.97;73.92;;
80580;Laerm;69939;52.402;6.608;2023-12-07T13:58:23;68.22;51.39;77.41;;
80580;Laerm;69939;52.402;6.608;2023-12-07T14:00:53;67.60;50.78;76.35;;
80580;Laerm;69939;52.402;6.608;2023-12-07T14:03:22;67.00;53.63;74.04;;
80580;Laerm;69939;52.402;6.608;2023-12-07T14:05:51;74.37;51.68;96.67;;
80580;Laerm;69939;52.402;6.608;2023-12-07T14:08:21;66.98;51.14;74.63;;